createdAt,value
2018-01-24T00:00:05.158Z,38.7
2018-01-24T00:02:05.696Z,38.5
2018-01-24T00:04:10.503Z,38.6
2018-01-24T00:06:05.790Z,38.9
2018-01-24T00:08:05.997Z,39
2018-01-24T00:10:05.796Z,38.7
2018-01-24T00:12:05.588Z,38.9
2018-01-24T00:14:05.547Z,38.8
2018-01-24T00:16:05.315Z,38.8
2018-01-24T00:18:05.289Z,39
2018-01-24T00:20:05.372Z,38.7
2018-01-24T00:22:05.234Z,38.7
2018-01-24T00:24:05.999Z,38.7
2018-01-24T00:26:05.889Z,38.6
2018-01-24T00:28:07.702Z,38.6
2018-01-24T00:30:05.419Z,38.6
2018-01-24T00:32:07.744Z,38.6
2018-01-24T00:34:05.402Z,38.6
2018-01-24T00:36:05.142Z,38.7
2018-01-24T00:38:05.713Z,38.6
2018-01-24T00:40:07.962Z,38.6
2018-01-24T00:42:05.739Z,38.6
2018-01-24T00:44:06.133Z,38.6
2018-01-24T00:46:05.925Z,38.5
2018-01-24T00:48:05.987Z,38.5
2018-01-24T00:50:05.324Z,38.6
2018-01-24T00:52:05.086Z,38.5
2018-01-24T00:54:05.832Z,38.5
2018-01-24T00:56:05.904Z,38.5
2018-01-24T00:58:05.675Z,38.4
2018-01-24T01:00:05.415Z,38.6
2018-01-24T01:02:05.166Z,38.5
2018-01-24T01:04:08.464Z,38.4
2018-01-24T01:06:05.224Z,38.4
2018-01-24T01:08:06.007Z,38.4
2018-01-24T01:10:08.340Z,38.4
2018-01-24T01:12:05.179Z,38.4
2018-01-24T01:14:06.235Z,38.4
2018-01-24T01:16:08.080Z,38.4
2018-01-24T01:18:06.032Z,38.4
2018-01-24T01:20:05.758Z,38.4
2018-01-24T01:22:05.539Z,38.3
2018-01-24T01:24:07.811Z,38.4
2018-01-24T01:26:05.807Z,38.4
2018-01-24T01:28:05.645Z,38.4
2018-01-24T01:30:05.918Z,38.4
2018-01-24T01:32:05.722Z,38.4
2018-01-24T01:34:08.068Z,38.2
2018-01-24T01:36:06.149Z,38.4
2018-01-24T01:38:05.908Z,38.4
2018-01-24T01:40:05.806Z,38.5
2018-01-24T01:42:05.587Z,38.5
2018-01-24T01:44:11.051Z,38.3
2018-01-24T01:46:11.031Z,38.3
2018-01-24T01:48:05.817Z,38.3
2018-01-24T01:50:05.548Z,38.3
2018-01-24T01:52:07.831Z,38.3
2018-01-24T01:54:05.614Z,38.3
2018-01-24T01:56:05.923Z,38.3
2018-01-24T01:58:05.717Z,38.3
2018-01-24T02:00:08.080Z,38.4
2018-01-24T02:02:08.678Z,38.2
2018-01-24T02:04:05.461Z,38.4
2018-01-24T02:06:12.829Z,38.2
2018-01-24T02:08:05.139Z,38.2
2018-01-24T02:10:05.907Z,38.5
2018-01-24T02:12:05.645Z,38.3
2018-01-24T02:14:05.388Z,38.2
2018-01-24T02:16:05.823Z,38.3
2018-01-24T02:18:05.757Z,38.3
2018-01-24T02:20:05.391Z,38.3
2018-01-24T02:22:05.158Z,38.3
2018-01-24T02:24:05.912Z,38.4
2018-01-24T02:26:05.697Z,38.4
2018-01-24T02:28:05.445Z,38.3
2018-01-24T02:30:05.305Z,38.4
2018-01-24T02:32:05.122Z,38.4
2018-01-24T02:34:05.422Z,38.5
2018-01-24T02:36:05.311Z,38.5
2018-01-24T02:38:05.460Z,38.5
2018-01-24T02:40:05.300Z,38.5
2018-01-24T02:42:07.621Z,38.3
2018-01-24T02:44:05.660Z,38.3
2018-01-24T02:46:08.019Z,38.3
2018-01-24T02:48:10.871Z,38.3
2018-01-24T02:50:05.677Z,38.3
2018-01-24T02:52:05.454Z,38.4
2018-01-24T02:54:05.207Z,38.6
2018-01-24T02:56:06.180Z,38.4
2018-01-24T02:58:05.505Z,38.4
2018-01-24T03:00:05.332Z,38.7
2018-01-24T03:02:05.116Z,38.4
2018-01-24T03:04:05.865Z,38.4
2018-01-24T03:06:10.716Z,38.5
2018-01-24T03:08:07.989Z,38.5
2018-01-24T03:10:08.252Z,38.5
2018-01-24T03:12:06.579Z,38.5
2018-01-24T03:14:07.870Z,38.5
2018-01-24T03:16:05.661Z,38.3
2018-01-24T03:18:05.166Z,38.6
2018-01-24T03:20:05.727Z,38.5
2018-01-24T03:22:15.603Z,38.6
2018-01-24T03:24:05.341Z,38.6
2018-01-24T03:26:08.198Z,38.6
2018-01-24T03:28:05.920Z,38.6
2018-01-24T03:30:05.660Z,38.5
2018-01-24T03:32:05.975Z,38.5
2018-01-24T03:34:05.726Z,38.6
2018-01-24T03:36:05.521Z,38.6
2018-01-24T03:38:05.280Z,38.5
2018-01-24T03:40:06.025Z,38.2
2018-01-24T03:42:05.803Z,38.5
2018-01-24T03:44:05.571Z,38.5
2018-01-24T03:46:10.376Z,38.3
2018-01-24T03:48:10.269Z,38.4
2018-01-24T03:50:06.036Z,38.4
2018-01-24T03:52:05.791Z,38.4
2018-01-24T03:54:15.177Z,38.6
2018-01-24T03:56:08.457Z,38.5
2018-01-24T03:58:05.220Z,38.5
2018-01-24T04:00:08.482Z,38.5
2018-01-24T04:02:05.802Z,38.5
2018-01-24T04:04:05.625Z,38.5
2018-01-24T04:06:10.974Z,38.5
2018-01-24T04:08:05.795Z,38.5
2018-01-24T04:10:05.087Z,38.5
2018-01-24T04:12:05.372Z,38.5
2018-01-24T04:14:05.348Z,38.5
2018-01-24T04:16:07.886Z,38.5
2018-01-24T04:18:05.957Z,38.5
2018-01-24T04:20:05.719Z,38.5
2018-01-24T04:22:05.510Z,38.6
2018-01-24T04:24:05.217Z,38.6
2018-01-24T04:26:06.059Z,38.6
2018-01-24T04:28:05.838Z,38.6
2018-01-24T04:30:05.141Z,38.6
2018-01-24T04:32:06.246Z,38.7
2018-01-24T04:34:08.522Z,38.6
2018-01-24T04:36:07.797Z,38.7
2018-01-24T04:38:10.895Z,38.4
2018-01-24T04:40:05.739Z,38.7
2018-01-24T04:42:06.022Z,38.6
2018-01-24T04:44:13.391Z,38.6
2018-01-24T04:46:05.151Z,38.6
2018-01-24T04:48:08.520Z,38.7
2018-01-24T04:50:05.269Z,38.4
2018-01-24T04:52:06.016Z,38.7
2018-01-24T04:54:08.293Z,38.7
2018-01-24T04:56:05.587Z,38.8
2018-01-24T04:58:05.345Z,38.7
2018-01-24T05:00:05.168Z,38.6
2018-01-24T05:02:06.013Z,38.8
2018-01-24T05:04:08.334Z,38.7
2018-01-24T05:06:05.109Z,38.7
2018-01-24T05:08:06.201Z,38.7
2018-01-24T05:10:05.982Z,38.4
2018-01-24T05:12:08.339Z,38.5
2018-01-24T05:14:05.701Z,38.5
2018-01-24T05:16:05.489Z,38.7
2018-01-24T05:18:05.441Z,38.7
2018-01-24T05:20:05.239Z,38.5
2018-01-24T05:22:05.974Z,38.6
2018-01-24T05:24:05.797Z,38.7
2018-01-24T05:26:05.605Z,38.7
2018-01-24T05:28:07.884Z,38.6
2018-01-24T05:30:05.241Z,38.6
2018-01-24T05:32:06.027Z,38.6
2018-01-24T05:34:05.732Z,38.8
2018-01-24T05:36:05.497Z,38.8
2018-01-24T05:38:05.417Z,38.8
2018-01-24T05:40:05.248Z,38.9
2018-01-24T05:42:05.967Z,38.6
2018-01-24T05:44:11.303Z,38.6
2018-01-24T05:46:10.647Z,38.8
2018-01-24T05:48:05.399Z,38.8
2018-01-24T05:50:05.188Z,38.8
2018-01-24T05:52:05.915Z,38.7
2018-01-24T05:54:05.667Z,38.6
2018-01-24T05:56:05.455Z,38.6
2018-01-24T05:58:05.208Z,38.8
2018-01-24T06:00:05.974Z,38.9
2018-01-24T06:02:05.713Z,38.8
2018-01-24T06:04:05.480Z,38.8
2018-01-24T06:06:05.236Z,38.8
2018-01-24T06:08:06.008Z,38.6
2018-01-24T06:10:05.321Z,38.9
2018-01-24T06:12:05.124Z,38.8
2018-01-24T06:14:06.167Z,38.8
2018-01-24T06:16:05.899Z,38.6
2018-01-24T06:18:12.537Z,38.5
2018-01-24T06:20:05.427Z,38.8
2018-01-24T06:22:05.354Z,38.6
2018-01-24T06:24:05.186Z,38.8
2018-01-24T06:26:05.897Z,38.8
2018-01-24T06:28:08.202Z,39
2018-01-24T06:30:11.074Z,38.9
2018-01-24T06:32:05.931Z,38.8
2018-01-24T06:34:05.767Z,38.8
2018-01-24T06:36:05.463Z,38.8
2018-01-24T06:38:08.134Z,38.8
2018-01-24T06:40:05.425Z,38.8
2018-01-24T06:42:08.019Z,38.9
2018-01-24T06:44:05.962Z,38.9
2018-01-24T06:46:05.753Z,39
2018-01-24T06:48:07.578Z,39.1
2018-01-24T06:50:05.422Z,39.1
2018-01-24T06:52:05.220Z,39.1
2018-01-24T06:54:05.624Z,39.1
2018-01-24T06:56:05.707Z,39.1
2018-01-24T06:58:05.687Z,39.1
2018-01-24T07:00:05.616Z,39.2
2018-01-24T07:02:05.926Z,39.1
2018-01-24T07:04:10.737Z,39.1
2018-01-24T07:06:05.509Z,39.1
2018-01-24T07:08:05.306Z,39.3
2018-01-24T07:10:05.122Z,39.3
2018-01-24T07:12:11.182Z,39.1
2018-01-24T07:14:06.192Z,39.1
2018-01-24T07:16:08.035Z,39.2
2018-01-24T07:18:05.505Z,39.2
2018-01-24T07:20:15.354Z,39.2
2018-01-24T07:22:07.628Z,39.2
2018-01-24T07:24:05.391Z,39.2
2018-01-24T07:26:05.238Z,39.3
2018-01-24T07:28:08.480Z,39.2
2018-01-24T07:30:05.202Z,39.2
2018-01-24T07:32:05.456Z,39.4
2018-01-24T07:34:05.187Z,39.4
2018-01-24T07:36:10.994Z,39.4
2018-01-24T07:38:08.117Z,39.5
2018-01-24T07:40:05.834Z,39.5
2018-01-24T07:42:15.694Z,39.5
2018-01-24T07:44:05.752Z,39.5
2018-01-24T07:46:05.526Z,39.5
2018-01-24T07:48:07.851Z,39.5
2018-01-24T07:50:08.175Z,39.4
2018-01-24T07:52:05.433Z,39.4
2018-01-24T07:54:05.170Z,39.4
2018-01-24T07:56:05.416Z,39.7
2018-01-24T07:58:07.672Z,39.5
2018-01-24T08:00:18.074Z,39.7
2018-01-24T08:02:06.128Z,39.7
2018-01-24T08:04:05.899Z,39.5
2018-01-24T08:06:08.321Z,39.8
2018-01-24T08:08:05.445Z,39.8
2018-01-24T08:10:08.324Z,39.8
2018-01-24T08:12:05.094Z,39.8
2018-01-24T08:14:05.241Z,39.8
2018-01-24T08:16:06.140Z,39.8
2018-01-24T08:18:05.080Z,39.7
2018-01-24T08:20:05.888Z,39.7
2018-01-24T08:22:05.627Z,39.6
2018-01-24T08:24:05.423Z,39.7
2018-01-24T08:26:10.303Z,39.8
2018-01-24T08:28:05.552Z,39.8
2018-01-24T08:30:07.852Z,39.8
2018-01-24T08:32:08.460Z,39.8
2018-01-24T08:34:05.860Z,39.8
2018-01-24T08:36:05.195Z,39.8
2018-01-24T08:38:11.070Z,39.8
2018-01-24T08:40:05.322Z,40
2018-01-24T08:42:07.729Z,40
2018-01-24T08:44:05.477Z,40
2018-01-24T08:46:12.852Z,40
2018-01-24T08:48:05.640Z,39.8
2018-01-24T08:50:05.375Z,40
2018-01-24T08:52:08.785Z,39.9
2018-01-24T08:54:05.522Z,39.9
2018-01-24T08:56:05.431Z,40
2018-01-24T08:58:05.221Z,40.4
2018-01-24T09:00:08.005Z,40
2018-01-24T09:02:08.311Z,39.9
2018-01-24T09:04:05.105Z,39.9
2018-01-24T09:06:05.602Z,40
2018-01-24T09:08:05.359Z,39.8
2018-01-24T09:10:07.857Z,39.8
2018-01-24T09:12:05.586Z,39.8
2018-01-24T09:14:05.387Z,39.6
2018-01-24T09:16:05.177Z,39.5
2018-01-24T09:18:05.185Z,39.5
2018-01-24T09:20:05.960Z,39.6
2018-01-24T09:22:06.034Z,39.6
2018-01-24T09:24:08.362Z,39.6
2018-01-24T09:26:05.166Z,39.6
2018-01-24T09:28:06.060Z,39.6
2018-01-24T09:30:05.894Z,39.5
2018-01-24T09:32:05.733Z,39.9
2018-01-24T09:34:06.010Z,39.7
2018-01-24T09:36:08.400Z,39.8
2018-01-24T09:38:05.197Z,39.5
2018-01-24T09:40:05.986Z,39.3
2018-01-24T09:42:08.257Z,39.5
2018-01-24T09:44:08.522Z,39.9
2018-01-24T09:46:05.899Z,39.9
2018-01-24T09:48:05.610Z,40.1
2018-01-24T09:50:05.844Z,40.1
2018-01-24T09:52:05.719Z,40
2018-01-24T09:54:08.077Z,41.9
2018-01-24T09:56:05.846Z,41.9
2018-01-24T09:58:05.571Z,41.5
2018-01-24T10:00:05.361Z,41.6
2018-01-24T10:02:10.725Z,41.5
2018-01-24T10:04:05.509Z,41.5
2018-01-24T10:06:05.387Z,41.3
2018-01-24T10:08:05.482Z,41.4
2018-01-24T10:10:05.811Z,41.6
2018-01-24T10:12:05.539Z,41.5
2018-01-24T10:14:05.837Z,41.4
2018-01-24T10:16:05.546Z,41.5
2018-01-24T10:18:05.066Z,41.4
2018-01-24T10:20:05.825Z,41.5
2018-01-24T10:22:05.602Z,41.4
2018-01-24T10:24:05.414Z,41.4
2018-01-24T10:26:05.529Z,41.3
2018-01-24T10:28:05.340Z,41.4
2018-01-24T10:30:05.100Z,41.3
2018-01-24T10:32:05.388Z,41.4
2018-01-24T10:34:05.242Z,41.6
2018-01-24T10:36:05.526Z,41.5
2018-01-24T10:38:05.676Z,41.5
2018-01-24T10:40:05.485Z,41.5
2018-01-24T10:42:05.294Z,41.4
2018-01-24T10:44:05.340Z,41.4
2018-01-24T10:46:07.921Z,41.3
2018-01-24T10:48:05.704Z,41.3
2018-01-24T10:50:05.604Z,41.3
2018-01-24T10:52:05.372Z,41.3
2018-01-24T10:54:05.170Z,41.3
2018-01-24T10:56:05.814Z,41.3
2018-01-24T10:58:05.597Z,41.2
2018-01-24T11:00:05.367Z,41.3
2018-01-24T11:02:05.172Z,41.2
2018-01-24T11:04:05.947Z,41.3
2018-01-24T11:06:05.764Z,41.2
2018-01-24T11:08:10.593Z,41.3
2018-01-24T11:10:05.399Z,41.2
2018-01-24T11:12:05.510Z,41.2
2018-01-24T11:14:07.946Z,41.2
2018-01-24T11:16:05.701Z,41.2
2018-01-24T11:18:05.626Z,41.2
2018-01-24T11:20:08.379Z,41.2
2018-01-24T11:22:05.221Z,41.2
2018-01-24T11:24:08.468Z,41.2
2018-01-24T11:26:05.355Z,41.2
2018-01-24T11:28:05.117Z,41.2
2018-01-24T11:30:08.447Z,41.2
2018-01-24T11:32:07.785Z,41.2
2018-01-24T11:34:05.578Z,41.5
2018-01-24T11:36:05.311Z,41.2
2018-01-24T11:38:05.080Z,41.2
2018-01-24T11:40:05.867Z,41.5
2018-01-24T11:42:05.736Z,41.2
2018-01-24T11:44:10.599Z,41.6
2018-01-24T11:46:07.859Z,41.6
2018-01-24T11:48:05.605Z,41.3
2018-01-24T11:50:05.453Z,41.5
2018-01-24T11:52:05.328Z,41.3
2018-01-24T11:54:05.227Z,41.2
2018-01-24T11:56:05.125Z,41.3
2018-01-24T11:58:05.892Z,41.5
2018-01-24T12:00:06.006Z,41.3
2018-01-24T12:02:06.063Z,41.2
2018-01-24T12:04:05.824Z,41.3
2018-01-24T12:06:05.570Z,41.3
2018-01-24T12:08:05.342Z,41.3
2018-01-24T12:10:10.665Z,41.3
2018-01-24T12:12:05.620Z,41.3
2018-01-24T12:14:05.959Z,41.7
2018-01-24T12:16:05.796Z,41.6
2018-01-24T12:18:08.323Z,41.8
2018-01-24T12:20:05.406Z,41.9
2018-01-24T12:22:05.151Z,41.6
2018-01-24T12:24:05.897Z,42.4
2018-01-24T12:26:08.228Z,41.8
2018-01-24T12:28:06.007Z,41.8
2018-01-24T12:30:05.767Z,41.8
2018-01-24T12:32:05.545Z,42.1
2018-01-24T12:34:05.414Z,42.1
2018-01-24T12:36:10.218Z,42.5
2018-01-24T12:38:06.017Z,42.6
2018-01-24T12:40:05.888Z,42.4
2018-01-24T12:42:05.785Z,42.9
2018-01-24T12:44:08.094Z,42.8
2018-01-24T12:46:05.922Z,42.8
2018-01-24T12:48:06.138Z,42.9
2018-01-24T12:50:05.929Z,43.6
2018-01-24T12:52:05.883Z,43.9
2018-01-24T12:54:10.693Z,44.9
2018-01-24T12:56:06.817Z,44.9
2018-01-24T12:58:05.699Z,44.9
2018-01-24T13:00:05.477Z,45.4
2018-01-24T13:02:05.780Z,45.6
2018-01-24T13:04:05.542Z,45.6
2018-01-24T13:06:08.342Z,45.9
2018-01-24T13:08:05.185Z,45.9
2018-01-24T13:10:06.088Z,45.6
2018-01-24T13:12:05.892Z,46
2018-01-24T13:14:05.696Z,46.2
2018-01-24T13:16:05.459Z,46.6
2018-01-24T13:18:05.450Z,46.2
2018-01-24T13:20:05.313Z,45.9
2018-01-24T13:22:05.155Z,46.1
2018-01-24T13:24:08.477Z,46.2
2018-01-24T13:26:05.608Z,46.2
2018-01-24T13:28:07.963Z,46.1
2018-01-24T13:30:05.743Z,46.1
2018-01-24T13:32:08.077Z,45.8
2018-01-24T13:34:08.362Z,46.3
2018-01-24T13:36:05.094Z,46.4
2018-01-24T13:38:06.085Z,46.6
2018-01-24T13:40:05.851Z,46.7
2018-01-24T13:42:05.752Z,46.4
2018-01-24T13:44:05.587Z,46.3
2018-01-24T13:46:07.886Z,46.8
2018-01-24T13:48:05.772Z,46.8
2018-01-24T13:50:10.808Z,46.6
2018-01-24T13:52:07.645Z,46.1
2018-01-24T13:54:18.563Z,46.1
2018-01-24T13:56:05.696Z,46
2018-01-24T13:58:05.825Z,46.1
2018-01-24T14:00:10.684Z,45.9
2018-01-24T14:02:05.734Z,45.9
2018-01-24T14:04:05.791Z,45.5
2018-01-24T14:06:05.669Z,45.4
2018-01-24T14:08:05.725Z,45.7
2018-01-24T14:10:05.905Z,45.6
2018-01-24T14:12:05.703Z,45.5
2018-01-24T14:14:05.939Z,45.5
2018-01-24T14:16:06.753Z,45.4
2018-01-24T14:18:06.009Z,45.3
2018-01-24T14:20:05.796Z,45.3
2018-01-24T14:22:06.344Z,45.2
2018-01-24T14:24:05.427Z,45.2
2018-01-24T14:26:16.287Z,45
2018-01-24T14:28:08.405Z,45
2018-01-24T14:30:06.436Z,45
2018-01-24T14:32:05.665Z,45.1
2018-01-24T14:34:07.975Z,44.9
2018-01-24T14:36:05.588Z,44.9
2018-01-24T14:38:08.687Z,44.9
2018-01-24T14:40:05.778Z,44.9
2018-01-24T14:42:05.540Z,43
2018-01-24T14:44:05.467Z,44.6
2018-01-24T14:46:07.793Z,44.5
2018-01-24T14:48:05.664Z,44.5
2018-01-24T14:50:13.586Z,44.6
2018-01-24T14:52:10.364Z,44.5
2018-01-24T14:54:05.074Z,44.5
2018-01-24T14:56:11.065Z,44.5
2018-01-24T14:58:06.401Z,44.5
2018-01-24T15:00:07.659Z,44.4
2018-01-24T15:02:05.456Z,44.4
2018-01-24T15:04:05.314Z,44.5
2018-01-24T15:06:05.110Z,44.5
2018-01-24T15:08:08.736Z,44.2
2018-01-24T15:10:05.525Z,44.2
2018-01-24T15:12:05.549Z,44.3
2018-01-24T15:14:05.317Z,44.2
2018-01-24T15:16:05.062Z,44.2
2018-01-24T15:18:06.036Z,44.1
2018-01-24T15:20:06.100Z,44.2
2018-01-24T15:22:05.878Z,44.3
2018-01-24T15:24:05.761Z,44.3
2018-01-24T15:26:05.575Z,44
2018-01-24T15:28:05.342Z,44.2
2018-01-24T15:30:10.247Z,44.1
2018-01-24T15:32:08.986Z,44
2018-01-24T15:34:05.903Z,44
2018-01-24T15:36:05.664Z,44.2
2018-01-24T15:38:05.653Z,44.3
2018-01-24T15:40:05.701Z,44.1
2018-01-24T15:42:05.468Z,43.9
2018-01-24T15:44:05.224Z,43.7
2018-01-24T15:46:05.944Z,43.9
2018-01-24T15:48:05.218Z,43.8
2018-01-24T15:50:06.276Z,44.1
2018-01-24T15:52:06.022Z,43.9
2018-01-24T15:54:10.853Z,43.8
2018-01-24T15:56:05.695Z,43.8
2018-01-24T15:58:13.203Z,43.7
2018-01-24T16:00:06.550Z,43.7
2018-01-24T16:02:05.333Z,43.6
2018-01-24T16:04:05.168Z,43.6
2018-01-24T16:06:06.102Z,43.6
2018-01-24T16:08:05.882Z,43.7
2018-01-24T16:10:05.784Z,43.7
2018-01-24T16:12:05.537Z,43.8
2018-01-24T16:14:05.287Z,44.1
2018-01-24T16:16:06.391Z,44.4
2018-01-24T16:18:05.407Z,44.8
2018-01-24T16:20:07.922Z,44.4
2018-01-24T16:22:05.676Z,44.4
2018-01-24T16:24:05.442Z,43.4
2018-01-24T16:26:05.184Z,43.3
2018-01-24T16:28:08.050Z,43.3
2018-01-24T16:30:10.828Z,43.5
2018-01-24T16:32:05.606Z,43.5
2018-01-24T16:34:18.061Z,43.5
2018-01-24T16:36:05.827Z,43.5
2018-01-24T16:38:05.615Z,43.5
2018-01-24T16:40:05.394Z,43.5
2018-01-24T16:42:07.805Z,43.3
2018-01-24T16:44:05.597Z,43.3
2018-01-24T16:46:06.311Z,43.3
2018-01-24T16:48:05.064Z,43.4
2018-01-24T16:50:10.854Z,43.5
2018-01-24T16:52:06.627Z,43.5
2018-01-24T16:54:07.923Z,43.6
2018-01-24T16:56:05.226Z,43.6
2018-01-24T16:58:05.941Z,43.5
2018-01-24T17:00:05.778Z,43.5
2018-01-24T17:02:05.564Z,43.3
2018-01-24T17:04:05.371Z,43.6
2018-01-24T17:06:05.124Z,44
2018-01-24T17:08:05.734Z,43.9
2018-01-24T17:10:05.478Z,44.1
2018-01-24T17:12:07.752Z,44.6
2018-01-24T17:14:08.053Z,44.6
2018-01-24T17:16:10.855Z,44.8
2018-01-24T17:18:05.821Z,44.8
2018-01-24T17:20:05.858Z,44.9
2018-01-24T17:22:05.639Z,45.1
2018-01-24T17:24:05.435Z,45.2
2018-01-24T17:26:10.883Z,44.7
2018-01-24T17:28:05.698Z,44.6
2018-01-24T17:30:05.506Z,44.6
2018-01-24T17:32:08.027Z,45.4
2018-01-24T17:34:05.770Z,45.4
2018-01-24T17:36:05.539Z,45.4
2018-01-24T17:38:05.553Z,45.4
2018-01-24T17:40:05.326Z,45.4
2018-01-24T17:42:05.088Z,45.4
2018-01-24T17:44:06.141Z,45.4
2018-01-24T17:46:05.922Z,45.5
2018-01-24T17:48:05.629Z,45.4
2018-01-24T17:50:05.676Z,45.5
2018-01-24T17:52:08.336Z,45.5
2018-01-24T17:54:05.848Z,45.5
2018-01-24T17:56:05.686Z,45.4
2018-01-24T17:58:05.691Z,45.4
2018-01-24T18:00:05.665Z,45.4
2018-01-24T18:02:08.212Z,45.4
2018-01-24T18:04:07.660Z,44.7
2018-01-24T18:06:07.916Z,44.4
2018-01-24T18:08:06.160Z,44.3
2018-01-24T18:10:08.528Z,44.2
2018-01-24T18:12:05.395Z,44.2
2018-01-24T18:14:07.697Z,43.9
2018-01-24T18:16:05.539Z,43.9
2018-01-24T18:18:05.493Z,43.9
2018-01-24T18:20:07.878Z,43.9
2018-01-24T18:22:05.849Z,43.9
2018-01-24T18:24:05.573Z,43.9
2018-01-24T18:26:05.352Z,43.8
2018-01-24T18:28:05.142Z,43.8
2018-01-24T18:30:05.855Z,43.8
2018-01-24T18:32:05.640Z,43.7
2018-01-24T18:34:05.452Z,43.8
2018-01-24T18:36:05.726Z,43.7
2018-01-24T18:38:06.004Z,43.5
2018-01-24T18:40:06.038Z,44.2
2018-01-24T18:42:05.897Z,44.2
2018-01-24T18:44:06.841Z,43.6
2018-01-24T18:46:07.025Z,43.5
2018-01-24T18:48:11.511Z,43.8
2018-01-24T18:50:05.168Z,43.8
2018-01-24T18:52:05.603Z,44
2018-01-24T18:54:05.854Z,43.9
2018-01-24T18:56:06.056Z,43.8
2018-01-24T18:58:05.760Z,44.1
2018-01-24T19:00:05.575Z,43.8
2018-01-24T19:02:05.479Z,43.6
2018-01-24T19:04:05.319Z,43.7
2018-01-24T19:06:05.096Z,43.5
2018-01-24T19:08:05.974Z,43.6
2018-01-24T19:10:10.889Z,43.8
2018-01-24T19:12:05.973Z,43.7
2018-01-24T19:14:05.806Z,43.6
2018-01-24T19:16:05.645Z,44
2018-01-24T19:18:07.689Z,44.4
2018-01-24T19:20:07.990Z,44.5
2018-01-24T19:22:05.722Z,44.3
2018-01-24T19:24:05.457Z,44.5
2018-01-24T19:26:07.821Z,44
2018-01-24T19:28:05.606Z,44
2018-01-24T19:30:05.367Z,44
2018-01-24T19:32:05.089Z,43.9
2018-01-24T19:34:05.828Z,44.3
2018-01-24T19:36:05.117Z,44.1
2018-01-24T19:38:08.718Z,44
2018-01-24T19:40:05.689Z,44
2018-01-24T19:42:10.480Z,43.9
2018-01-24T19:44:08.025Z,44.1
2018-01-24T19:46:05.782Z,44.1
2018-01-24T19:48:06.817Z,44.2
2018-01-24T19:50:15.714Z,44
2018-01-24T19:52:09.020Z,44
2018-01-24T19:54:07.771Z,44.3
2018-01-24T19:56:08.267Z,44.3
2018-01-24T19:58:10.588Z,44.3
2018-01-24T20:00:05.648Z,44.3
2018-01-24T20:02:05.413Z,44.2
2018-01-24T20:04:05.699Z,44.3
2018-01-24T20:06:05.897Z,44
2018-01-24T20:08:10.898Z,44.3
2018-01-24T20:10:12.715Z,44
2018-01-24T20:12:05.533Z,44
2018-01-24T20:14:05.304Z,44.1
2018-01-24T20:16:05.105Z,44.1
2018-01-24T20:18:05.718Z,44.1
2018-01-24T20:20:05.523Z,44
2018-01-24T20:22:05.322Z,44
2018-01-24T20:24:08.141Z,44.1
2018-01-24T20:26:08.055Z,44.1
2018-01-24T20:28:08.350Z,44.3
2018-01-24T20:30:05.121Z,44.3
2018-01-24T20:32:08.456Z,44.2
2018-01-24T20:34:05.148Z,44.2
2018-01-24T20:36:08.394Z,44
2018-01-24T20:38:05.237Z,43.9
2018-01-24T20:40:06.013Z,44.1
2018-01-24T20:42:05.274Z,43.8
2018-01-24T20:44:05.058Z,43.7
2018-01-24T20:46:05.916Z,43.8
2018-01-24T20:48:05.702Z,43.6
2018-01-24T20:50:05.742Z,44
2018-01-24T20:52:05.428Z,43.8
2018-01-24T20:54:05.177Z,43.7
2018-01-24T20:56:05.953Z,43.6
2018-01-24T20:58:08.301Z,43.6
2018-01-24T21:00:12.629Z,43.6
2018-01-24T21:02:05.404Z,43.6
2018-01-24T21:04:05.177Z,43.5
2018-01-24T21:06:06.932Z,43.5
2018-01-24T21:08:05.692Z,43.4
2018-01-24T21:10:05.473Z,43.5
2018-01-24T21:12:05.208Z,43.4
2018-01-24T21:14:06.267Z,43.4
2018-01-24T21:16:05.233Z,43.5
2018-01-24T21:18:05.248Z,43.3
2018-01-24T21:20:05.670Z,43.4
2018-01-24T21:22:05.647Z,43.4
2018-01-24T21:24:05.456Z,43.5
2018-01-24T21:26:07.797Z,43.4
2018-01-24T21:28:05.584Z,43.4
2018-01-24T21:30:05.291Z,43.4
2018-01-24T21:32:08.031Z,43.4
2018-01-24T21:34:07.871Z,43.8
2018-01-24T21:36:08.186Z,43.5
2018-01-24T21:38:06.197Z,43.6
2018-01-24T21:40:05.195Z,43.6
2018-01-24T21:42:10.608Z,43.2
2018-01-24T21:44:07.978Z,43.4
2018-01-24T21:46:05.986Z,43.4
2018-01-24T21:48:05.752Z,43.4
2018-01-24T21:50:08.114Z,43.5
2018-01-24T21:52:05.987Z,43.2
2018-01-24T21:54:05.727Z,43.6
2018-01-24T21:56:06.041Z,43.5
2018-01-24T21:58:07.849Z,43.3
2018-01-24T22:00:05.700Z,43.3
2018-01-24T22:02:05.245Z,43.2
2018-01-24T22:04:05.504Z,43.2
2018-01-24T22:06:06.146Z,43.4
2018-01-24T22:08:05.946Z,43.3
2018-01-24T22:10:05.953Z,43.9
2018-01-24T22:12:08.250Z,43.8
2018-01-24T22:14:05.990Z,43.8
2018-01-24T22:16:07.815Z,43.6
2018-01-24T22:18:05.820Z,43.9
2018-01-24T22:20:05.405Z,43.6
2018-01-24T22:22:12.843Z,44.2
2018-01-24T22:24:05.685Z,44.2
2018-01-24T22:26:05.748Z,43.8
2018-01-24T22:28:05.337Z,43.6
2018-01-24T22:30:05.100Z,43.8
2018-01-24T22:32:05.872Z,43.9
2018-01-24T22:34:05.175Z,44
2018-01-24T22:36:05.958Z,43.9
2018-01-24T22:38:05.772Z,44
2018-01-24T22:40:05.444Z,44
2018-01-24T22:42:05.260Z,44
2018-01-24T22:44:13.667Z,43.8
2018-01-24T22:46:07.188Z,43.8
2018-01-24T22:48:05.273Z,44
2018-01-24T22:50:05.101Z,44
2018-01-24T22:52:08.422Z,44
2018-01-24T22:54:05.198Z,44
2018-01-24T22:56:05.960Z,43.7
2018-01-24T22:58:05.284Z,43.9
2018-01-24T23:00:05.106Z,43.7
2018-01-24T23:02:05.846Z,43.8
2018-01-24T23:04:05.785Z,43.6
2018-01-24T23:06:05.580Z,43.6
2018-01-24T23:08:05.580Z,43.7
2018-01-24T23:10:07.812Z,43.5
2018-01-24T23:12:05.886Z,43.5
2018-01-24T23:14:05.897Z,43.5
2018-01-24T23:16:05.805Z,43.5
2018-01-24T23:18:05.836Z,43.5
2018-01-24T23:20:08.446Z,43.3
2018-01-24T23:22:05.162Z,43.4
2018-01-24T23:24:06.032Z,43.5
2018-01-24T23:26:05.404Z,43.5
2018-01-24T23:28:05.486Z,43.4
2018-01-24T23:30:05.235Z,43.3
2018-01-24T23:32:06.327Z,43.3
2018-01-24T23:34:05.931Z,43.4
2018-01-24T23:36:05.442Z,43.4
2018-01-24T23:38:05.956Z,43.4
2018-01-24T23:40:05.771Z,43.4
2018-01-24T23:42:05.539Z,43.1
2018-01-24T23:44:05.341Z,43.1
2018-01-24T23:46:05.065Z,43.5
2018-01-24T23:48:05.822Z,43.2
2018-01-24T23:50:08.092Z,43.2
2018-01-24T23:52:05.413Z,43.1
2018-01-24T23:54:05.505Z,43.2
2018-01-24T23:56:05.298Z,43.1
2018-01-24T23:58:06.024Z,43.2
